createdAt,value
2022-09-05T00:04:46.381Z,2.80
2022-09-05T00:10:12.431Z,4.10
2022-09-05T00:15:34.660Z,4.10
2022-09-05T00:24:27.278Z,8.40
2022-09-05T00:26:32.442Z,8.20
2022-09-05T00:31:55.405Z,6.70
2022-09-05T00:37:04.638Z,8.50
2022-09-05T00:42:17.781Z,13.40
2022-09-05T00:47:35.530Z,11.70
2022-09-05T00:52:51.746Z,14.10
2022-09-05T00:58:33.905Z,13.30
2022-09-05T01:03:56.982Z,9.50
2022-09-05T01:14:40.530Z,6.70
2022-09-05T01:20:18.681Z,11.20
2022-09-05T01:25:46.972Z,7.60
2022-09-05T01:31:06.551Z,11.30
2022-09-05T01:36:27.899Z,8.70
2022-09-05T01:41:46.565Z,6.70
2022-09-05T01:47:29.420Z,7.20
2022-09-05T01:53:00.475Z,5.60
2022-09-05T01:58:17.628Z,4.10
2022-09-05T02:03:33.069Z,6.10
2022-09-05T02:09:12.655Z,6.50
2022-09-05T02:14:34.179Z,3.20
2022-09-05T02:19:49.038Z,4.30
2022-09-05T02:26:00.663Z,6.60
2022-09-05T02:30:47.475Z,4.30
2022-09-05T02:36:16.483Z,7.70
2022-09-05T02:45:17.179Z,5.40
2022-09-05T02:47:13.454Z,6.40
2022-09-05T02:57:29.106Z,12.20
2022-09-05T02:58:07.749Z,10.40
2022-09-05T03:03:29.819Z,8.30
2022-09-05T03:08:55.959Z,8.00
2022-09-05T03:14:45.866Z,8.00
2022-09-05T03:20:22.660Z,6.80
2022-09-05T03:26:08.907Z,7.90
2022-09-05T03:31:36.037Z,7.70
2022-09-05T03:37:24.621Z,5.40
2022-09-05T03:42:59.079Z,8.50
2022-09-05T03:48:30.808Z,5.50
2022-09-05T03:57:24.630Z,5.90
2022-09-05T03:59:55.576Z,9.10
2022-09-05T04:08:29.250Z,6.60
2022-09-05T04:10:46.858Z,9.20
2022-09-05T04:16:10.892Z,6.00
2022-09-05T04:21:23.898Z,3.60
2022-09-05T04:26:52.102Z,2.50
2022-09-05T04:32:18.909Z,2.70
2022-09-05T04:37:47.885Z,2.30
2022-09-05T04:42:59.783Z,2.40
2022-09-05T04:48:10.873Z,3.00
2022-09-05T04:53:31.724Z,3.20
2022-09-05T05:00:31.703Z,3.50
2022-09-05T05:06:11.538Z,4.00
2022-09-05T05:09:46.959Z,3.40
2022-09-05T05:18:10.723Z,2.90
2022-09-05T05:20:41.657Z,4.10
2022-09-05T05:25:55.241Z,4.00
2022-09-05T05:31:14.466Z,3.60
2022-09-05T05:36:25.303Z,4.80
2022-09-05T05:41:42.322Z,4.60
2022-09-05T05:47:01.257Z,10.90
2022-09-05T05:52:36.508Z,4.50
2022-09-05T05:58:08.382Z,3.70
2022-09-05T06:03:47.178Z,3.30
2022-09-05T06:14:37.537Z,3.90
2022-09-05T06:15:21.421Z,3.30
2022-09-05T06:22:04.513Z,4.00
2022-09-05T06:26:51.200Z,2.70
2022-09-05T06:32:09.781Z,2.70
2022-09-05T06:37:29.057Z,3.70
2022-09-05T06:42:51.613Z,2.10
2022-09-05T06:48:06.153Z,2.30
2022-09-05T06:53:45.903Z,2.20
2022-09-05T06:59:42.717Z,1.50
2022-09-05T07:05:36.842Z,2.30
2022-09-05T07:10:39.408Z,1.40
2022-09-05T07:15:57.716Z,2.80
2022-09-05T07:21:16.790Z,3.10
2022-09-05T07:26:51.880Z,1.70
2022-09-05T07:31:56.738Z,1.30
2022-09-05T07:37:15.148Z,3.90
2022-09-05T07:42:27.971Z,1.50
2022-09-05T07:47:38.499Z,2.40
2022-09-05T07:56:53.302Z,3.80
2022-09-05T07:58:20.228Z,3.40
2022-09-05T08:03:30.607Z,1.30
2022-09-05T08:09:18.497Z,2.20
2022-09-05T08:14:44.886Z,2.80
2022-09-05T08:20:09.198Z,1.20
2022-09-05T08:25:21.403Z,1.10
2022-09-05T08:30:33.777Z,1.10
2022-09-05T08:35:46.282Z,1.50
2022-09-05T08:41:01.249Z,0.30
2022-09-05T08:46:46.978Z,0.40
2022-09-05T08:51:56.017Z,1.90
2022-09-05T08:57:12.332Z,0.60
2022-09-05T09:02:54.562Z,1.70
2022-09-05T09:08:15.673Z,0.50
2022-09-05T09:13:52.914Z,0.90
2022-09-05T09:19:15.194Z,0.60
2022-09-05T09:24:40.114Z,1.20
2022-09-05T09:29:48.218Z,2.00
2022-09-05T09:35:06.328Z,0.60
2022-09-05T09:40:31.862Z,0.80
2022-09-05T09:46:04.208Z,0.70
2022-09-05T09:51:30.773Z,0.40
2022-09-05T09:57:07.551Z,0.50
2022-09-05T10:04:31.229Z,0.30
2022-09-05T10:10:44.490Z,1.00
2022-09-05T10:14:49.868Z,0.30
2022-09-05T10:20:18.204Z,0.60
2022-09-05T10:26:07.233Z,0.70
2022-09-05T10:34:16.067Z,1.30
2022-09-05T10:36:55.359Z,2.20
2022-09-05T10:42:09.401Z,0.40
2022-09-05T10:47:32.398Z,0.80
2022-09-05T10:52:45.169Z,0.90
2022-09-05T10:58:07.612Z,0.50
2022-09-05T11:03:23.554Z,0.60
2022-09-05T11:08:45.985Z,0.40
2022-09-05T11:13:55.884Z,0.50
2022-09-05T11:19:09.435Z,0.70
2022-09-05T11:24:31.967Z,1.80
2022-09-05T11:29:44.782Z,1.30
2022-09-05T11:39:57.506Z,1.40
2022-09-05T11:41:04.988Z,2.30
2022-09-05T11:46:30.069Z,0.60
2022-09-05T11:52:11.067Z,1.30
2022-09-05T11:57:34.638Z,0.40
2022-09-05T12:03:12.476Z,2.00
2022-09-05T12:08:44.045Z,1.00
2022-09-05T12:13:59.698Z,0.90
2022-09-05T12:19:35.286Z,0.90
2022-09-05T12:25:26.087Z,1.60
2022-09-05T12:30:49.012Z,1.30
2022-09-05T12:39:21.473Z,1.40
2022-09-05T12:42:14.728Z,1.10
2022-09-05T12:47:19.776Z,2.30
2022-09-05T12:52:43.630Z,2.10
2022-09-05T13:02:56.476Z,1.50
2022-09-05T13:03:29.894Z,2.10
2022-09-05T13:08:59.136Z,2.60
2022-09-05T13:14:53.293Z,0.90
2022-09-05T13:19:51.873Z,1.20
2022-09-05T13:25:08.755Z,0.70
2022-09-05T13:36:59.768Z,1.30
2022-09-05T13:38:11.257Z,1.00
2022-09-05T13:41:30.998Z,1.50
2022-09-05T13:51:52.740Z,1.20
2022-09-05T13:57:32.568Z,1.50
2022-09-05T14:08:40.594Z,5.20
2022-09-05T14:14:11.006Z,7.80
2022-09-05T14:19:40.699Z,5.00
2022-09-05T14:24:55.726Z,6.40
2022-09-05T14:30:38.432Z,2.60
2022-09-05T14:37:41.743Z,1.00
2022-09-05T14:42:07.434Z,2.10
2022-09-05T14:47:35.135Z,6.10
2022-09-05T15:02:43.606Z,6.80
2022-09-05T15:12:15.832Z,2.90
2022-09-05T15:15:14.619Z,6.90
2022-09-05T15:20:42.490Z,2.60
2022-09-05T15:25:52.445Z,1.30
2022-09-05T15:31:02.096Z,3.30
2022-09-05T15:36:13.857Z,3.80
2022-09-05T15:41:23.562Z,1.80
2022-09-05T15:46:40.197Z,5.90
2022-09-05T15:51:51.752Z,5.80
2022-09-05T15:57:03.556Z,6.50
2022-09-05T16:02:17.901Z,5.80
2022-09-05T16:10:42.875Z,5.90
2022-09-05T16:12:56.391Z,9.00
2022-09-05T16:23:27.596Z,7.70
2022-09-05T16:23:41.420Z,14.60
2022-09-05T16:28:53.247Z,17.00
2022-09-05T16:34:08.474Z,14.40
2022-09-05T16:39:23.551Z,26.00
2022-09-05T16:44:37.439Z,29.30
2022-09-05T16:49:55.345Z,25.50
2022-09-05T16:55:14.853Z,15.00
2022-09-05T17:00:23.876Z,6.60
2022-09-05T17:05:41.926Z,5.50
2022-09-05T17:10:57.701Z,9.60
2022-09-05T17:16:09.224Z,23.60
2022-09-05T17:22:55.354Z,57.10
2022-09-05T17:29:33.613Z,75.00
2022-09-05T17:32:28.935Z,76.40
2022-09-05T17:38:11.593Z,75.90
2022-09-05T17:43:29.894Z,62.00
2022-09-05T17:49:19.372Z,54.90
2022-09-05T17:54:33.869Z,48.80
2022-09-05T17:59:42.451Z,45.30
2022-09-05T18:04:51.629Z,39.40
2022-09-05T18:10:14.810Z,35.40
2022-09-05T18:16:00.545Z,34.20
2022-09-05T18:21:22.145Z,28.80
2022-09-05T18:26:39.634Z,29.80
2022-09-05T18:32:07.223Z,23.60
2022-09-05T18:38:02.834Z,24.50
2022-09-05T18:43:25.386Z,32.50
2022-09-05T18:48:35.169Z,36.10
2022-09-05T18:53:47.639Z,34.60
2022-09-05T18:59:14.631Z,33.60
2022-09-05T19:04:38.920Z,30.90
2022-09-05T19:10:34.538Z,31.30
2022-09-05T19:15:35.775Z,30.50
2022-09-05T19:21:11.938Z,29.00
2022-09-05T19:26:21.112Z,20.70
2022-09-05T19:37:10.685Z,13.40
2022-09-05T19:37:29.363Z,10.30
2022-09-05T19:47:41.053Z,5.70
2022-09-05T19:48:07.522Z,5.60
2022-09-05T19:53:24.252Z,4.40
2022-09-05T19:58:32.086Z,3.10
2022-09-05T20:03:45.795Z,4.40
2022-09-05T20:08:54.591Z,4.60
2022-09-05T20:14:20.768Z,10.70
2022-09-05T20:19:31.971Z,6.00
2022-09-05T20:24:39.511Z,7.00
2022-09-05T20:29:56.083Z,10.10
2022-09-05T20:38:59.669Z,8.70
2022-09-05T20:43:14.800Z,8.10
2022-09-05T20:47:17.400Z,10.00
2022-09-05T20:54:27.971Z,9.20
2022-09-05T20:57:02.282Z,8.20
2022-09-05T21:02:08.451Z,8.20
2022-09-05T21:07:19.758Z,9.40
2022-09-05T21:12:29.518Z,11.10
2022-09-05T21:17:38.167Z,9.20
2022-09-05T21:22:46.776Z,10.90
2022-09-05T21:28:09.118Z,12.40
2022-09-05T21:33:22.385Z,8.40
2022-09-05T21:38:46.944Z,8.00
2022-09-05T21:47:50.095Z,6.70
2022-09-05T21:49:22.976Z,6.70
2022-09-05T21:59:18.567Z,5.80
2022-09-05T22:00:10.598Z,6.90
2022-09-05T22:05:25.993Z,5.20
2022-09-05T22:10:45.366Z,3.60
2022-09-05T22:16:06.811Z,4.70
2022-09-05T22:21:33.433Z,4.90
2022-09-05T22:27:10.780Z,5.10
2022-09-05T22:32:13.783Z,4.60
2022-09-05T22:37:21.201Z,5.50
2022-09-05T22:42:29.300Z,4.80
2022-09-05T22:47:36.778Z,5.90
2022-09-05T22:52:44.240Z,5.80
2022-09-05T22:57:51.257Z,7.60
2022-09-05T23:03:02.075Z,7.10
2022-09-05T23:08:10.081Z,3.60
2022-09-05T23:13:17.482Z,6.40
2022-09-05T23:18:24.782Z,7.10
2022-09-05T23:23:32.282Z,9.20
2022-09-05T23:28:42.889Z,7.00
2022-09-05T23:33:51.481Z,6.40
2022-09-05T23:38:58.920Z,8.20
2022-09-05T23:44:06.698Z,5.10
2022-09-05T23:49:14.096Z,6.00
2022-09-05T23:54:21.514Z,4.70
2022-09-05T23:59:29.338Z,6.00
